createdAt,value
2023-01-17T00:02:31.706Z,67.70
2023-01-17T00:05:19.727Z,67.75
2023-01-17T00:08:07.869Z,67.71
2023-01-17T00:10:41.055Z,67.86
2023-01-17T00:13:10.106Z,67.72
2023-01-17T00:15:40.448Z,67.91
2023-01-17T00:18:09.731Z,67.81
2023-01-17T00:20:57.947Z,67.93
2023-01-17T00:24:02.459Z,67.91
2023-01-17T00:26:32.685Z,67.78
2023-01-17T00:29:02.176Z,68.02
2023-01-17T00:31:31.451Z,68.02
2023-01-17T00:33:59.746Z,67.84
2023-01-17T00:36:28.278Z,67.80
2023-01-17T00:38:57.586Z,67.96
2023-01-17T00:41:29.336Z,67.96
2023-01-17T00:44:17.553Z,67.92
2023-01-17T00:47:05.575Z,67.96
2023-01-17T00:49:53.076Z,68.17
2023-01-17T00:52:41.035Z,68.15
2023-01-17T00:55:29.803Z,68.19
2023-01-17T00:58:17.631Z,68.07
2023-01-17T04:00:40.182Z,68.30
2023-01-17T04:03:09.489Z,68.29
2023-01-17T04:05:38.766Z,68.45
2023-01-17T04:08:07.981Z,68.34
2023-01-17T04:10:36.340Z,68.34
2023-01-17T04:13:05.277Z,68.47
2023-01-17T04:15:34.906Z,68.57
2023-01-17T04:18:05.903Z,68.55
2023-01-17T04:20:38.798Z,68.60
2023-01-17T04:23:08.470Z,68.51
2023-01-17T04:25:38.465Z,68.53
2023-01-17T04:28:07.596Z,68.62
2023-01-17T04:30:36.865Z,68.47
2023-01-17T04:33:06.269Z,68.39
2023-01-17T04:35:35.195Z,68.44
2023-01-17T04:38:04.527Z,68.49
2023-01-17T04:40:32.897Z,68.62
2023-01-17T04:43:01.938Z,68.60
2023-01-17T04:45:31.048Z,68.62
2023-01-17T04:48:06.899Z,68.49
2023-01-17T04:50:35.793Z,68.53
2023-01-17T04:53:05.615Z,68.55
2023-01-17T04:55:34.487Z,68.75
2023-01-17T04:58:03.773Z,68.71
2023-01-17T05:00:32.852Z,68.83
2023-01-17T05:03:02.145Z,68.76
2023-01-17T05:05:31.847Z,68.81
2023-01-17T05:08:01.128Z,68.69
2023-01-17T05:10:30.329Z,68.65
2023-01-17T05:13:00.322Z,68.84
2023-01-17T05:15:31.490Z,68.74
2023-01-17T05:18:00.865Z,68.78
2023-01-17T05:20:30.467Z,69.01
2023-01-17T05:22:59.590Z,68.85
2023-01-17T05:25:31.308Z,69.03
2023-01-17T05:28:00.947Z,69.02
2023-01-17T05:30:31.731Z,68.86
2023-01-17T05:33:00.911Z,69.01
2023-01-17T05:35:35.940Z,69.01
2023-01-17T05:38:04.832Z,69.02
2023-01-17T05:40:34.346Z,68.97
2023-01-17T05:43:04.238Z,69.04
2023-01-17T05:45:34.273Z,68.94
2023-01-17T05:48:04.509Z,68.86
2023-01-17T05:50:36.445Z,68.88
2023-01-17T05:53:08.830Z,69.11
2023-01-17T05:55:39.332Z,69.09
2023-01-17T05:58:13.822Z,69.20
2023-01-17T06:00:43.440Z,68.89
2023-01-17T06:03:13.446Z,69.01
2023-01-17T06:05:43.311Z,69.00
2023-01-17T06:08:12.637Z,68.99
2023-01-17T06:10:42.000Z,68.92
2023-01-17T06:13:14.639Z,68.86
2023-01-17T06:15:43.434Z,68.97
2023-01-17T06:18:15.641Z,68.93
2023-01-17T06:20:45.341Z,68.87
2023-01-17T06:23:15.428Z,69.04
2023-01-17T06:25:46.152Z,69.09
2023-01-17T06:28:18.078Z,68.99
2023-01-17T06:30:46.995Z,68.95
2023-01-17T06:33:16.569Z,68.95
2023-01-17T06:35:53.492Z,69.03
2023-01-17T06:38:22.594Z,68.84
2023-01-17T06:40:52.287Z,69.12
2023-01-17T06:43:21.407Z,68.93
2023-01-17T06:45:51.446Z,68.78
2023-01-17T06:48:20.889Z,68.84
2023-01-17T06:50:50.311Z,68.97
2023-01-17T06:53:19.947Z,68.96
2023-01-17T06:55:48.436Z,68.92
2023-01-17T06:58:17.009Z,68.95
2023-01-17T07:00:46.369Z,69.04
2023-01-17T07:03:33.435Z,68.68
2023-01-17T07:06:04.125Z,68.68
2023-01-17T07:08:36.380Z,68.70
2023-01-17T07:11:09.009Z,68.82
2023-01-17T07:13:39.280Z,69.01
2023-01-17T07:16:09.522Z,68.86
2023-01-17T07:18:37.989Z,68.76
2023-01-17T07:21:13.485Z,68.89
2023-01-17T07:23:42.641Z,68.85
2023-01-17T07:26:11.485Z,68.94
2023-01-17T07:28:40.630Z,68.84
2023-01-17T07:31:09.497Z,68.69
2023-01-17T07:33:37.934Z,68.89
2023-01-17T07:36:08.282Z,68.92
2023-01-17T07:38:37.057Z,68.71
2023-01-17T07:41:05.664Z,68.73
2023-01-17T07:43:36.166Z,68.77
2023-01-17T07:46:07.093Z,68.83
2023-01-17T07:48:35.629Z,68.81
2023-01-17T07:51:04.112Z,68.92
2023-01-17T07:53:33.831Z,68.73
2023-01-17T07:56:05.074Z,68.64
2023-01-17T07:58:34.531Z,68.71
2023-01-17T08:01:10.796Z,68.79
2023-01-17T08:03:40.427Z,68.76
2023-01-17T08:06:24.449Z,68.75
2023-01-17T08:08:58.086Z,68.64
2023-01-17T08:11:27.608Z,68.42
2023-01-17T08:14:00.655Z,68.38
2023-01-17T08:16:30.140Z,68.52
2023-01-17T08:18:58.559Z,68.54
2023-01-17T08:21:27.529Z,68.47
2023-01-17T08:23:57.131Z,68.43
2023-01-17T08:26:25.780Z,68.42
2023-01-17T08:29:00.781Z,68.25
2023-01-17T08:31:32.460Z,68.26
2023-01-17T08:34:02.224Z,68.32
2023-01-17T08:36:32.563Z,68.15
2023-01-17T08:39:01.645Z,68.35
2023-01-17T08:41:30.319Z,68.50
2023-01-17T08:43:59.702Z,68.29
2023-01-17T08:46:30.910Z,68.46
2023-01-17T08:49:03.665Z,68.13
2023-01-17T08:51:35.859Z,68.01
2023-01-17T08:54:09.955Z,68.34
2023-01-17T08:56:42.138Z,68.19
2023-01-17T08:59:12.139Z,68.29
2023-01-17T09:01:43.263Z,68.16
2023-01-17T09:04:14.063Z,68.06
2023-01-17T09:06:46.032Z,68.15
2023-01-17T09:09:18.737Z,68.30
2023-01-17T09:11:48.069Z,68.10
2023-01-17T09:14:17.398Z,67.84
2023-01-17T09:16:46.930Z,68.19
2023-01-17T09:19:16.276Z,68.04
2023-01-17T09:21:46.056Z,68.02
2023-01-17T09:24:14.503Z,68.00
2023-01-17T09:26:43.665Z,67.87
2023-01-17T09:29:14.469Z,67.99
2023-01-17T09:31:43.219Z,68.09
2023-01-17T09:34:12.191Z,67.59
2023-01-17T09:36:41.702Z,67.91
2023-01-17T09:39:11.736Z,67.91
2023-01-17T09:42:16.410Z,67.71
2023-01-17T09:44:44.930Z,67.82
2023-01-17T09:47:27.539Z,67.47
2023-01-17T09:50:00.308Z,67.72
2023-01-17T09:52:32.768Z,67.67
2023-01-17T09:55:02.366Z,67.61
2023-01-17T09:57:35.742Z,67.61
2023-01-17T10:00:10.039Z,67.47
2023-01-17T10:02:48.938Z,67.68
2023-01-17T10:05:24.086Z,67.40
2023-01-17T10:08:10.976Z,67.21
2023-01-17T10:10:46.189Z,67.35
2023-01-17T10:13:30.248Z,67.28
2023-01-17T10:16:18.006Z,67.24
2023-01-17T10:18:59.239Z,67.28
2023-01-17T10:21:35.313Z,67.36
2023-01-17T10:24:31.869Z,67.32
2023-01-17T10:27:03.042Z,67.23
2023-01-17T10:29:35.383Z,67.30
2023-01-17T10:32:04.733Z,67.00
2023-01-17T10:34:52.714Z,67.55
2023-01-17T10:37:36.250Z,67.22
2023-01-17T10:40:35.330Z,67.02
2023-01-17T10:43:15.448Z,67.17
2023-01-17T10:45:54.171Z,67.21
2023-01-17T10:48:34.703Z,67.13
2023-01-17T10:51:50.639Z,67.30
2023-01-17T10:54:36.734Z,67.20
2023-01-17T10:57:05.927Z,67.15
2023-01-17T10:59:37.755Z,66.92
2023-01-17T11:02:20.726Z,66.95
2023-01-17T11:04:54.794Z,66.80
2023-01-17T11:07:26.430Z,66.87
2023-01-17T11:09:57.949Z,66.77
2023-01-17T11:12:40.980Z,66.85
2023-01-17T11:15:09.768Z,66.47
2023-01-17T11:17:53.366Z,66.67
2023-01-17T11:20:30.496Z,66.30
2023-01-17T11:23:15.462Z,66.66
2023-01-17T11:25:58.723Z,66.67
2023-01-17T11:28:31.331Z,66.55
2023-01-17T11:31:04.803Z,66.38
2023-01-17T11:33:46.270Z,66.56
2023-01-17T11:36:33.695Z,66.24
2023-01-17T11:39:07.673Z,66.53
2023-01-17T11:41:42.731Z,66.42
2023-01-17T11:44:23.341Z,66.45
2023-01-17T11:47:14.214Z,66.28
2023-01-17T11:49:46.111Z,66.23
2023-01-17T11:52:32.980Z,66.15
2023-01-17T11:55:02.055Z,65.96
2023-01-17T11:57:36.916Z,65.75
2023-01-17T12:00:38.084Z,66.06
2023-01-17T12:03:45.577Z,66.22
2023-01-17T12:06:56.513Z,65.88
2023-01-17T12:09:50.308Z,66.07
2023-01-17T12:12:49.244Z,66.34
2023-01-17T12:15:30.690Z,66.28
2023-01-17T12:18:47.302Z,66.29
2023-01-17T12:21:29.987Z,66.01
2023-01-17T12:24:23.893Z,66.03
2023-01-17T12:27:23.168Z,66.01
2023-01-17T12:30:16.527Z,65.83
2023-01-17T12:33:13.700Z,65.67
2023-01-17T12:35:51.036Z,65.99
2023-01-17T12:38:47.655Z,65.74
2023-01-17T12:41:34.052Z,65.74
2023-01-17T12:44:03.253Z,65.80
2023-01-17T12:46:44.460Z,65.58
2023-01-17T12:49:30.486Z,65.60
2023-01-17T12:52:11.686Z,65.38
2023-01-17T12:54:45.631Z,65.48
2023-01-17T12:57:24.084Z,65.35
2023-01-17T13:00:20.261Z,65.43
2023-01-17T13:03:04.739Z,65.25
2023-01-17T13:05:41.985Z,65.40
2023-01-17T13:08:26.580Z,65.12
2023-01-17T13:11:18.731Z,65.40
2023-01-17T13:13:51.920Z,65.26
2023-01-17T13:16:42.173Z,65.08
2023-01-17T13:19:40.720Z,65.31
2023-01-17T13:22:19.938Z,65.15
2023-01-17T13:24:56.035Z,65.22
2023-01-17T13:27:52.958Z,64.97
2023-01-17T13:30:24.940Z,65.20
2023-01-17T13:33:34.177Z,64.96
2023-01-17T13:36:30.459Z,64.78
2023-01-17T13:39:36.388Z,65.16
2023-01-17T13:42:49.445Z,64.97
2023-01-17T13:45:21.861Z,64.85
2023-01-17T13:47:51.411Z,65.02
2023-01-17T13:50:38.834Z,64.81
2023-01-17T13:53:29.516Z,64.62
2023-01-17T13:56:16.764Z,64.99
2023-01-17T13:58:50.956Z,64.77
2023-01-17T14:01:23.627Z,64.86
2023-01-17T14:03:53.319Z,64.55
2023-01-17T14:06:41.971Z,64.75
2023-01-17T14:09:34.630Z,64.82
2023-01-17T14:12:03.166Z,64.33
2023-01-17T14:14:41.265Z,64.80
2023-01-17T14:17:28.666Z,64.46
2023-01-17T14:20:09.917Z,64.49
2023-01-17T14:22:42.191Z,64.24
2023-01-17T14:25:20.714Z,64.19
2023-01-17T14:27:56.322Z,64.34
2023-01-17T14:30:27.507Z,64.30
2023-01-17T14:32:59.707Z,64.09
2023-01-17T14:35:32.292Z,63.98
2023-01-17T14:38:03.545Z,64.27
2023-01-17T14:40:35.277Z,64.13
2023-01-17T14:43:16.407Z,64.46
2023-01-17T14:45:45.217Z,64.00
2023-01-17T14:48:22.413Z,64.40
2023-01-17T14:50:54.916Z,63.87
2023-01-17T14:53:28.913Z,64.17
2023-01-17T14:56:18.813Z,64.06
2023-01-17T14:58:47.674Z,63.81
2023-01-17T15:01:19.661Z,63.96
2023-01-17T15:03:52.039Z,63.74
2023-01-17T15:06:37.271Z,63.92
2023-01-17T15:09:17.321Z,63.83
2023-01-17T15:11:48.374Z,63.89
2023-01-17T15:14:37.572Z,63.86
2023-01-17T15:17:28.953Z,63.80
2023-01-17T15:20:01.959Z,63.77
2023-01-17T15:22:31.108Z,63.86
2023-01-17T15:25:00.286Z,63.71
2023-01-17T15:27:29.020Z,63.44
2023-01-17T15:30:02.258Z,63.65
2023-01-17T15:32:33.738Z,63.44
2023-01-17T15:35:03.233Z,63.76
2023-01-17T15:37:40.059Z,63.72
2023-01-17T15:40:20.685Z,63.60
2023-01-17T15:42:53.545Z,63.13
2023-01-17T15:45:28.350Z,63.42
2023-01-17T15:47:59.532Z,63.17
2023-01-17T15:50:38.767Z,63.44
2023-01-17T15:53:29.705Z,63.27
2023-01-17T15:55:58.413Z,63.16
2023-01-17T15:58:30.748Z,63.17
2023-01-17T16:00:59.578Z,63.22
2023-01-17T16:03:31.506Z,63.23
2023-01-17T16:06:03.233Z,63.23
2023-01-17T16:08:32.148Z,63.27
2023-01-17T16:11:03.670Z,63.12
2023-01-17T16:13:39.354Z,63.34
2023-01-17T16:16:20.757Z,62.99
2023-01-17T16:18:58.033Z,63.07
2023-01-17T16:21:29.639Z,63.08
2023-01-17T16:24:00.017Z,63.12
2023-01-17T16:26:29.566Z,63.34
2023-01-17T16:28:58.972Z,63.25
2023-01-17T16:31:27.404Z,63.38
2023-01-17T16:33:56.741Z,63.18
2023-01-17T16:36:25.688Z,63.46
2023-01-17T16:38:54.229Z,63.10
2023-01-17T16:41:23.014Z,63.16
2023-01-17T16:44:01.533Z,63.10
2023-01-17T16:46:30.208Z,63.23
2023-01-17T16:49:02.345Z,63.27
2023-01-17T16:51:31.613Z,63.30
2023-01-17T16:54:01.177Z,63.19
2023-01-17T16:56:29.581Z,63.19
2023-01-17T16:58:58.173Z,63.39
2023-01-17T17:01:26.476Z,63.30
2023-01-17T17:03:55.377Z,63.23
2023-01-17T17:06:24.224Z,63.13
2023-01-17T17:08:52.852Z,62.99
2023-01-17T17:11:24.211Z,63.10
2023-01-17T17:13:53.054Z,63.03
2023-01-17T17:16:33.279Z,63.08
2023-01-17T17:19:05.085Z,63.16
2023-01-17T17:21:35.301Z,62.89
2023-01-17T17:24:04.671Z,63.21
2023-01-17T17:26:35.703Z,63.12
2023-01-17T17:29:05.589Z,63.01
2023-01-17T17:31:33.930Z,62.88
2023-01-17T17:34:05.497Z,62.98
2023-01-17T17:36:35.507Z,62.73
2023-01-17T17:39:06.100Z,62.96
2023-01-17T17:41:39.432Z,62.83
2023-01-17T17:44:07.773Z,62.75
2023-01-17T17:46:37.909Z,62.59
2023-01-17T17:49:07.283Z,62.64
2023-01-17T17:51:38.451Z,62.69
2023-01-17T17:54:11.711Z,62.51
2023-01-17T17:56:40.544Z,62.57
2023-01-17T17:59:12.756Z,62.94
2023-01-17T18:01:42.023Z,62.74
2023-01-17T18:04:12.540Z,62.71
2023-01-17T18:06:41.602Z,62.53
2023-01-17T18:09:12.892Z,62.53
2023-01-17T18:11:43.204Z,62.62
2023-01-17T18:14:14.583Z,62.54
2023-01-17T18:16:48.858Z,62.80
2023-01-17T18:19:23.098Z,62.69
2023-01-17T18:21:52.355Z,62.67
2023-01-17T18:24:23.479Z,62.67
2023-01-17T18:26:57.279Z,62.63
2023-01-17T18:29:26.994Z,62.60
2023-01-17T18:31:56.385Z,62.72
2023-01-17T18:34:29.388Z,62.64
2023-01-17T18:36:59.579Z,62.77
2023-01-17T18:39:30.356Z,62.75
2023-01-17T18:41:59.997Z,62.57
2023-01-17T18:44:29.960Z,62.60
2023-01-17T18:47:02.197Z,62.70
2023-01-17T18:49:32.733Z,62.48
2023-01-17T18:52:01.475Z,62.56
2023-01-17T18:54:30.388Z,62.62
2023-01-17T18:56:59.437Z,62.81
2023-01-17T18:59:28.617Z,62.75
2023-01-17T19:01:58.957Z,62.54
2023-01-17T19:04:28.769Z,62.63
2023-01-17T19:06:57.400Z,62.83
2023-01-17T19:09:26.462Z,62.69
2023-01-17T19:11:56.081Z,62.62
2023-01-17T19:14:25.472Z,62.50
2023-01-17T19:16:54.960Z,62.54
2023-01-17T19:19:23.508Z,62.57
2023-01-17T19:21:52.917Z,62.46
2023-01-17T19:24:21.453Z,62.27
2023-01-17T19:26:53.658Z,62.28
2023-01-17T19:29:23.094Z,62.32
2023-01-17T19:31:52.980Z,62.18
2023-01-17T19:34:22.386Z,62.20
2023-01-17T19:36:53.525Z,62.33
2023-01-17T19:39:25.651Z,62.13
2023-01-17T19:41:53.992Z,62.44
2023-01-17T19:44:23.180Z,62.41
2023-01-17T19:46:51.698Z,62.33
2023-01-17T19:49:25.308Z,62.54
2023-01-17T19:51:54.465Z,62.48
2023-01-17T19:54:23.448Z,62.31
2023-01-17T19:56:51.675Z,62.44
2023-01-17T19:59:20.258Z,62.35
2023-01-17T20:01:49.715Z,62.22
2023-01-17T20:04:18.943Z,62.29
2023-01-17T20:06:47.429Z,62.20
2023-01-17T20:09:15.583Z,62.25
2023-01-17T20:11:45.822Z,62.31
2023-01-17T20:14:15.457Z,62.48
2023-01-17T20:16:48.925Z,62.37
2023-01-17T20:19:21.128Z,62.45
2023-01-17T20:21:50.237Z,62.35
2023-01-17T20:24:18.698Z,62.43
2023-01-17T20:26:47.273Z,62.38
2023-01-17T20:29:18.184Z,62.49
2023-01-17T20:31:52.724Z,62.65
2023-01-17T20:34:25.865Z,62.50
2023-01-17T20:36:57.902Z,62.33
2023-01-17T20:39:26.725Z,62.35
2023-01-17T20:41:55.138Z,62.20
2023-01-17T20:44:24.173Z,62.31
2023-01-17T20:46:52.797Z,62.37
2023-01-17T20:49:22.142Z,62.53
2023-01-17T20:51:54.210Z,62.41
2023-01-17T20:54:23.802Z,62.33
2023-01-17T20:56:53.014Z,62.33
2023-01-17T20:59:22.548Z,62.36
2023-01-17T21:01:52.262Z,62.42
2023-01-17T21:04:26.749Z,62.40
2023-01-17T21:06:56.648Z,62.37
2023-01-17T21:09:25.109Z,62.62
2023-01-17T21:11:54.844Z,62.51
2023-01-17T21:14:23.753Z,62.38
2023-01-17T21:16:53.084Z,62.40
2023-01-17T21:19:25.116Z,62.54
2023-01-17T21:21:54.107Z,62.44
2023-01-17T21:24:23.135Z,62.45
2023-01-17T21:26:52.747Z,62.40
2023-01-17T21:29:21.358Z,62.40
2023-01-17T21:31:50.157Z,62.35
2023-01-17T21:34:18.765Z,62.16
2023-01-17T21:36:47.106Z,62.41
2023-01-17T21:39:20.642Z,62.28
2023-01-17T21:41:51.125Z,62.59
2023-01-17T21:44:46.734Z,62.63
2023-01-17T21:47:44.945Z,62.42
2023-01-17T21:50:25.021Z,62.69
2023-01-17T21:53:04.099Z,62.78
2023-01-17T21:55:51.323Z,62.65
2023-01-17T21:58:39.813Z,62.58
2023-01-17T22:01:21.684Z,62.37
2023-01-17T22:03:54.170Z,62.57
2023-01-17T22:06:26.176Z,62.51
2023-01-17T22:09:14.555Z,62.39
2023-01-17T22:11:55.150Z,62.25
2023-01-17T22:14:24.455Z,62.35
2023-01-17T22:16:54.129Z,62.43
2023-01-17T22:19:22.926Z,62.44
2023-01-17T22:21:51.595Z,62.43
2023-01-17T22:24:20.204Z,62.64
2023-01-17T22:26:48.625Z,62.49
2023-01-17T22:29:19.063Z,62.33
2023-01-17T22:31:48.039Z,62.42
2023-01-17T22:34:16.930Z,62.82
2023-01-17T22:36:46.251Z,62.51
2023-01-17T22:39:15.391Z,62.27
2023-01-17T22:41:44.144Z,62.52
2023-01-17T22:44:13.397Z,62.55
2023-01-17T22:46:43.201Z,62.51
2023-01-17T22:49:16.348Z,62.35
2023-01-17T22:51:45.118Z,62.22
2023-01-17T22:54:13.792Z,62.49
2023-01-17T22:56:42.838Z,62.23
2023-01-17T22:59:12.539Z,62.30
2023-01-17T23:01:41.521Z,62.38
2023-01-17T23:04:14.059Z,62.42
2023-01-17T23:06:43.506Z,62.51
2023-01-17T23:09:14.896Z,62.31
2023-01-17T23:11:47.684Z,62.43
2023-01-17T23:14:17.763Z,62.45
2023-01-17T23:17:19.247Z,62.61
2023-01-17T23:19:51.318Z,62.88
2023-01-17T23:22:22.702Z,62.48
2023-01-17T23:25:14.503Z,62.58
2023-01-17T23:28:04.401Z,62.47
2023-01-17T23:31:08.959Z,62.51
2023-01-17T23:33:56.750Z,62.70
2023-01-17T23:36:25.362Z,62.71
2023-01-17T23:38:53.757Z,62.58
2023-01-17T23:41:41.299Z,62.35
2023-01-17T23:44:09.606Z,62.43
2023-01-17T23:46:38.407Z,62.50
2023-01-17T23:49:07.987Z,62.58
2023-01-17T23:51:39.396Z,62.55
2023-01-17T23:54:16.457Z,62.54
2023-01-17T23:56:45.238Z,62.55
2023-01-17T23:59:15.426Z,62.58
